Aeroporto :
LOGIN :

Iscrizione | Disclaimer

   EN    FR    IT 

 










Sommario :    VFR   VFR Marginale   IFR   IFR Intensivo   IFR Molto Intensivo
Visibilità : 
Base nubi : 
>= 8 km
>= 3000ft
5 / 8 km
1000 / 3000 ft
1500m / 5 km
500 / 1000 ft
800 / 1500m
200 / 500 ft
< 800m
< 200 ft
Simboli :   Temporali  Nebbia  Neve Forte  Precipitazioni Forti  Vento > 20 kt
SIGMETs :   Varie  Temporali  Ghiacco  Turbolenza  Onda orograficha  Ceneri Vulcaniche






- Altitudine del aeroporto : 1302 ft
- Codice IATA : GNB


LFLS - Grenoble / St. Geoirs

ULTIMO METAR :
  • 250030Z AUTO 10003KT 9999 SCT076 SCT090 OVC110 12/11 Q1013

METARs OBSOLETI :
  • 242330Z AUTO 07005KT 9999 FEW064/// BKN096/// BKN110/// ///TCU 13/12 Q1013
  • 242300Z AUTO 08006KT 9999 FEW070/// OVC088/// //////CB 13/12 Q1013
  • 242230Z AUTO 09009KT 9999 BKN056/// BKN070/// OVC086/// ///CB 13/11 Q1013
  • 242200Z AUTO 14009KT 9999 FEW021/// BKN046/// BKN054/// ///TCU 14/12 Q1013

TAF AMD TAF LFLS
Valido dal 24 a 17 ore il 25 a 15 ore UTC


241740Z 2417/2515 VRB05KT 9999 BKN070
TEMPO 2417/2420 4000 SHRA BKN040TCU
PROB40 2417/2419 VRB10KT TSRA BKN035CB
TEMPO 2421/2508 4000 RA BKN010 OVC035
PROB40
TEMPO 2422/2501 VRB15KT 2000 RA SCT030CB OVC035
BECMG 2508/2510 36008KT
PROB40
TEMPO 2511/2515 SHRA SCT035TCU BKN060
ATIS : +33 4 76 65 55 89



MetMap, La meteo Aeronautica in un colpo d'occhio ! - Copyright ORBIFLY Dicembre 2007 - Disclaimer

ORBIFLY MET'MAP TEAM :

Programmazione e sviluppo : Alexandra Zaïnal
Concezione : Baudouin d'Aumeries
Supporto tecnico e logistico : Manuel Goepfert
Aiuto : Marc-Olivier Méhu
Aiuto per la traduzione : Arnaldo La Scala




FONTI E CREDITI :

   NOAA